Time,TemperatureF,DewpointF,PressureIn,WindDirection,WindDirectionDegrees,WindSpeedMPH,WindSpeedGustMPH,Humidity,HourlyPrecipIn,Conditions,Clouds,dailyrainin,SoftwareType,DateUTC
2013-03-05 00:02:00,42.0,40.0,30.19,East,90,0.0,0.0,93,0.00,,,0.00,,2013-03-05 05:02:00,
2013-03-05 00:12:00,42.0,40.0,30.19,East,90,0.0,0.0,93,0.00,,,0.00,,2013-03-05 05:12:00,
2013-03-05 00:22:00,42.0,40.0,30.18,East,90,0.0,0.0,92,0.00,,,0.00,,2013-03-05 05:22:00,
2013-03-05 00:32:00,42.0,40.0,30.19,East,90,0.0,0.0,92,0.00,,,0.00,,2013-03-05 05:32:00,
2013-03-05 00:42:00,42.0,40.0,30.19,East,90,0.0,0.0,92,0.00,,,0.00,,2013-03-05 05:42:00,
2013-03-05 00:52:00,42.0,40.0,30.19,East,90,0.0,0.0,92,0.00,,,0.00,,2013-03-05 05:52:00,
2013-03-05 01:01:00,41.0,39.0,30.19,East,90,0.0,0.0,93,0.00,,,0.00,,2013-03-05 06:01:00,
2013-03-05 01:11:00,41.0,39.0,30.19,East,90,0.0,0.0,93,0.00,,,0.00,,2013-03-05 06:11:00,
2013-03-05 01:22:00,41.0,39.0,30.18,East,90,0.0,0.0,93,0.00,,,0.00,,2013-03-05 06:22:00,
2013-03-05 01:32:00,41.0,39.0,30.18,East,90,0.0,0.0,94,0.00,,,0.00,,2013-03-05 06:32:00,
2013-03-05 01:42:00,41.0,39.0,30.18,East,90,0.0,0.0,94,0.00,,,0.00,,2013-03-05 06:42:00,
2013-03-05 01:52:00,41.0,39.0,30.17,East,90,0.0,0.0,94,0.00,,,0.00,,2013-03-05 06:52:00,
2013-03-05 02:01:00,42.0,40.0,30.17,East,90,0.0,0.0,94,0.00,,,0.00,,2013-03-05 07:01:00,
2013-03-05 02:11:00,42.0,40.0,30.17,East,90,0.0,0.0,94,0.00,,,0.00,,2013-03-05 07:11:00,
2013-03-05 02:22:00,42.0,40.0,30.16,East,90,0.0,0.0,94,0.00,,,0.00,,2013-03-05 07:22:00,
2013-03-05 02:31:00,42.0,40.0,30.16,East,90,0.0,0.0,94,0.00,,,0.00,,2013-03-05 07:31:00,
2013-03-05 02:41:00,42.0,40.0,30.16,East,90,0.0,0.0,94,0.00,,,0.00,,2013-03-05 07:41:00,
2013-03-05 02:52:00,42.0,41.0,30.16,East,90,0.0,0.0,95,0.00,,,0.00,,2013-03-05 07:52:00,
2013-03-05 03:02:00,42.0,41.0,30.16,East,90,0.0,0.0,95,0.00,,,0.00,,2013-03-05 08:02:00,
2013-03-05 03:11:00,42.0,41.0,30.16,East,90,0.0,0.0,95,0.00,,,0.00,,2013-03-05 08:11:00,
2013-03-05 03:21:00,42.0,41.0,30.15,East,90,0.0,0.0,95,0.00,,,0.00,,2013-03-05 08:21:00,
2013-03-05 03:32:00,42.0,41.0,30.16,East,90,0.0,0.0,95,0.00,,,0.00,,2013-03-05 08:32:00,
2013-03-05 03:41:00,42.0,41.0,30.16,East,90,0.0,0.0,95,0.00,,,0.00,,2013-03-05 08:41:00,
2013-03-05 03:52:00,42.0,41.0,30.16,East,90,0.0,0.0,96,0.00,,,0.00,,2013-03-05 08:52:00,
2013-03-05 04:01:00,42.0,41.0,30.16,East,90,0.0,0.0,96,0.00,,,0.00,,2013-03-05 09:01:00,
2013-03-05 04:11:00,42.0,41.0,30.16,East,90,0.0,0.0,96,0.00,,,0.00,,2013-03-05 09:11:00,
2013-03-05 04:21:00,42.0,41.0,30.16,East,90,0.0,0.0,96,0.00,,,0.00,,2013-03-05 09:21:00,
2013-03-05 04:32:00,42.0,41.0,30.16,East,90,0.0,0.0,96,0.00,,,0.00,,2013-03-05 09:32:00,
2013-03-05 04:42:00,42.0,41.0,30.16,East,90,0.0,0.0,96,0.00,,,0.00,,2013-03-05 09:42:00,
2013-03-05 04:52:00,42.0,41.0,30.15,East,90,0.0,0.0,96,0.00,,,0.00,,2013-03-05 09:52:00,
2013-03-05 05:01:00,42.0,41.0,30.15,East,90,0.0,0.0,96,0.00,,,0.00,,2013-03-05 10:01:00,
2013-03-05 05:11:00,42.0,41.0,30.15,East,90,0.0,0.0,96,0.00,,,0.00,,2013-03-05 10:11:00,
2013-03-05 05:21:00,42.0,41.0,30.15,East,90,0.0,0.0,96,0.00,,,0.00,,2013-03-05 10:21:00,
2013-03-05 05:32:00,42.0,41.0,30.16,East,90,0.0,0.0,96,0.00,,,0.00,,2013-03-05 10:32:00,
2013-03-05 05:42:00,42.0,41.0,30.16,East,90,0.0,0.0,96,0.00,,,0.00,,2013-03-05 10:42:00,
2013-03-05 05:52:00,42.0,41.0,30.16,East,90,0.0,0.0,97,0.00,,,0.00,,2013-03-05 10:52:00,
2013-03-05 06:01:00,42.0,41.0,30.17,East,90,0.0,0.0,97,0.00,,,0.00,,2013-03-05 11:01:00,
2013-03-05 06:11:00,42.0,41.0,30.17,East,90,0.0,0.0,97,0.00,,,0.00,,2013-03-05 11:11:00,
2013-03-05 06:22:00,42.0,41.0,30.17,East,90,0.0,0.0,97,0.00,,,0.00,,2013-03-05 11:22:00,
2013-03-05 06:32:00,44.0,43.0,30.18,East,90,0.0,0.0,98,0.00,,,0.00,,2013-03-05 11:32:00,
2013-03-05 06:42:00,44.0,43.0,30.18,East,90,0.0,0.0,98,0.00,,,0.00,,2013-03-05 11:42:00,
2013-03-05 06:52:00,44.0,43.0,30.18,East,90,0.0,0.0,97,0.00,,,0.00,,2013-03-05 11:52:00,
2013-03-05 07:02:00,43.0,42.0,30.18,East,90,0.0,0.0,97,0.00,,,0.00,,2013-03-05 12:02:00,
2013-03-05 07:12:00,43.0,42.0,30.18,East,90,0.0,0.0,97,0.00,,,0.00,,2013-03-05 12:12:00,
2013-03-05 07:22:00,43.0,42.0,30.18,East,90,0.0,0.0,97,0.00,,,0.00,,2013-03-05 12:22:00,
2013-03-05 07:32:00,42.0,41.0,30.18,East,90,0.0,0.0,97,0.00,,,0.00,,2013-03-05 12:32:00,
2013-03-05 07:42:00,42.0,41.0,30.18,East,90,0.0,0.0,97,0.00,,,0.00,,2013-03-05 12:42:00,
2013-03-05 07:52:00,43.0,42.0,30.18,East,90,0.0,0.0,97,0.00,,,0.00,,2013-03-05 12:52:00,
2013-03-05 08:02:00,44.0,43.0,30.19,East,90,0.0,0.0,98,0.00,,,0.00,,2013-03-05 13:02:00,
2013-03-05 08:11:00,44.0,43.0,30.19,East,90,0.0,0.0,98,0.00,,,0.00,,2013-03-05 13:11:00,
2013-03-05 08:22:00,45.0,44.0,30.19,East,90,0.0,0.0,98,0.00,,,0.00,,2013-03-05 13:22:00,
2013-03-05 08:32:00,48.0,47.0,30.21,East,90,0.0,0.0,98,0.00,,,0.00,,2013-03-05 13:32:00,
2013-03-05 08:42:00,48.0,47.0,30.21,East,90,0.0,0.0,98,0.00,,,0.00,,2013-03-05 13:42:00,
2013-03-05 08:52:00,49.0,48.0,30.21,WSW,248,0.0,1.0,96,0.00,,,0.00,,2013-03-05 13:52:00,
2013-03-05 09:02:00,53.0,48.0,30.21,WNW,291,0.0,1.0,84,0.00,,,0.00,,2013-03-05 14:02:00,
2013-03-05 09:11:00,53.0,48.0,30.21,WNW,291,0.0,1.0,84,0.00,,,0.00,,2013-03-05 14:11:00,
2013-03-05 09:22:00,55.0,48.0,30.21,West,267,0.0,2.0,77,0.00,,,0.00,,2013-03-05 14:22:00,
2013-03-05 09:32:00,57.0,47.0,30.21,West,273,0.0,2.0,68,0.00,,,0.00,,2013-03-05 14:32:00,
2013-03-05 09:42:00,57.0,47.0,30.21,West,273,0.0,2.0,68,0.00,,,0.00,,2013-03-05 14:42:00,
2013-03-05 09:52:00,61.0,46.0,30.21,West,262,0.0,2.0,57,0.00,,,0.00,,2013-03-05 14:52:00,
2013-03-05 10:02:00,63.0,45.0,30.20,South,174,1.0,3.0,52,0.00,,,0.00,,2013-03-05 15:02:00,
2013-03-05 10:11:00,63.0,45.0,30.20,South,174,1.0,3.0,52,0.00,,,0.00,,2013-03-05 15:11:00,
2013-03-05 10:21:00,64.0,45.0,30.20,WNW,284,1.0,5.0,50,0.00,,,0.00,,2013-03-05 15:21:00,
2013-03-05 10:32:00,66.0,48.0,30.20,SE,137,1.0,3.0,53,0.00,,,0.00,,2013-03-05 15:32:00,
2013-03-05 10:42:00,66.0,48.0,30.20,SE,137,1.0,3.0,53,0.00,,,0.00,,2013-03-05 15:42:00,
2013-03-05 10:52:00,67.0,50.0,30.20,SSE,159,1.0,4.0,55,0.00,,,0.00,,2013-03-05 15:52:00,
2013-03-05 11:02:00,69.0,52.0,30.19,SSW,196,1.0,4.0,54,0.00,,,0.00,,2013-03-05 16:02:00,
2013-03-05 11:11:00,69.0,52.0,30.19,SSW,196,1.0,4.0,54,0.00,,,0.00,,2013-03-05 16:11:00,
2013-03-05 11:21:00,69.0,52.0,30.19,SSE,153,2.0,8.0,54,0.00,,,0.00,,2013-03-05 16:21:00,
2013-03-05 11:32:00,70.0,50.0,30.18,South,182,2.0,6.0,50,0.00,,,0.00,,2013-03-05 16:32:00,
2013-03-05 11:42:00,70.0,50.0,30.18,South,182,2.0,6.0,50,0.00,,,0.00,,2013-03-05 16:42:00,
2013-03-05 11:52:00,71.0,51.0,30.18,West,266,1.0,5.0,50,0.00,,,0.00,,2013-03-05 16:52:00,
2013-03-05 12:01:00,72.0,52.0,30.17,SSW,204,2.0,7.0,50,0.00,,,0.00,,2013-03-05 17:01:00,
2013-03-05 12:11:00,72.0,52.0,30.17,SSW,204,2.0,7.0,50,0.00,,,0.00,,2013-03-05 17:11:00,
2013-03-05 12:21:00,72.0,53.0,30.16,West,267,2.0,5.0,51,0.00,,,0.00,,2013-03-05 17:21:00,
2013-03-05 12:32:00,73.0,53.0,30.15,SSE,167,1.0,5.0,49,0.00,,,0.00,,2013-03-05 17:32:00,
2013-03-05 12:42:00,73.0,53.0,30.15,SSE,167,1.0,5.0,49,0.00,,,0.00,,2013-03-05 17:42:00,
2013-03-05 12:53:00,74.0,54.0,30.15,WSW,248,1.0,5.0,49,0.00,,,0.00,,2013-03-05 17:53:00,
2013-03-05 13:02:00,74.0,52.0,30.14,SSE,161,1.0,5.0,47,0.00,,,0.00,,2013-03-05 18:02:00,
2013-03-05 13:11:00,74.0,52.0,30.14,SSE,161,1.0,5.0,47,0.00,,,0.00,,2013-03-05 18:11:00,
2013-03-05 13:22:00,75.0,52.0,30.14,WSW,247,1.0,5.0,44,0.00,,,0.00,,2013-03-05 18:22:00,
2013-03-05 13:32:00,76.0,52.0,30.13,SE,127,2.0,7.0,43,0.00,,,0.00,,2013-03-05 18:32:00,
2013-03-05 13:42:00,76.0,52.0,30.13,SE,127,2.0,7.0,43,0.00,,,0.00,,2013-03-05 18:42:00,
2013-03-05 13:53:00,76.0,51.0,30.12,South,190,2.0,7.0,41,0.00,,,0.00,,2013-03-05 18:53:00,
2013-03-05 14:01:00,76.0,50.0,30.11,SSE,157,1.0,5.0,40,0.00,,,0.00,,2013-03-05 19:01:00,
2013-03-05 14:11:00,76.0,50.0,30.11,SSE,157,1.0,5.0,40,0.00,,,0.00,,2013-03-05 19:11:00,
2013-03-05 14:21:00,77.0,49.0,30.10,SSW,211,2.0,7.0,37,0.00,,,0.00,,2013-03-05 19:21:00,
2013-03-05 14:32:00,77.0,47.0,30.09,West,260,2.0,8.0,35,0.00,,,0.00,,2013-03-05 19:32:00,
2013-03-05 14:42:00,77.0,47.0,30.09,West,260,2.0,8.0,35,0.00,,,0.00,,2013-03-05 19:42:00,
2013-03-05 14:52:00,78.0,48.0,30.09,West,280,3.0,12.0,35,0.00,,,0.00,,2013-03-05 19:52:00,
2013-03-05 15:01:00,77.0,48.0,30.08,West,271,2.0,5.0,36,0.00,,,0.00,,2013-03-05 20:01:00,
2013-03-05 15:11:00,78.0,49.0,30.08,WSW,258,1.0,5.0,36,0.00,,,0.00,,2013-03-05 20:11:00,
2013-03-05 15:22:00,78.0,49.0,30.08,WSW,258,1.0,5.0,36,0.00,,,0.00,,2013-03-05 20:22:00,
2013-03-05 15:32:00,79.0,48.0,30.08,West,270,1.0,7.0,34,0.00,,,0.00,,2013-03-05 20:32:00,
2013-03-05 15:42:00,79.0,48.0,30.08,West,270,1.0,7.0,34,0.00,,,0.00,,2013-03-05 20:42:00,
2013-03-05 15:52:00,79.0,45.0,30.08,West,273,2.0,9.0,30,0.00,,,0.00,,2013-03-05 20:52:00,
2013-03-05 16:02:00,80.0,45.0,30.07,SSW,211,1.0,4.0,29,0.00,,,0.00,,2013-03-05 21:02:00,
2013-03-05 16:11:00,80.0,45.0,30.07,SSW,211,1.0,4.0,29,0.00,,,0.00,,2013-03-05 21:11:00,
2013-03-05 16:22:00,80.0,46.0,30.07,West,259,0.0,3.0,30,0.00,,,0.00,,2013-03-05 21:22:00,
2013-03-05 16:32:00,81.0,47.0,30.07,SW,220,1.0,5.0,30,0.00,,,0.00,,2013-03-05 21:32:00,
2013-03-05 16:42:00,81.0,47.0,30.07,SW,220,1.0,5.0,30,0.00,,,0.00,,2013-03-05 21:42:00,
2013-03-05 16:52:00,81.0,48.0,30.06,WSW,242,1.0,5.0,32,0.00,,,0.00,,2013-03-05 21:52:00,
2013-03-05 17:01:00,81.0,47.0,30.06,South,181,1.0,4.0,31,0.00,,,0.00,,2013-03-05 22:01:00,
2013-03-05 17:11:00,81.0,47.0,30.06,South,181,1.0,4.0,31,0.00,,,0.00,,2013-03-05 22:11:00,
2013-03-05 17:22:00,80.0,47.0,30.07,West,276,1.0,5.0,31,0.00,,,0.00,,2013-03-05 22:22:00,
2013-03-05 17:32:00,79.0,48.0,30.07,West,274,1.0,7.0,34,0.00,,,0.00,,2013-03-05 22:32:00,
2013-03-05 17:42:00,79.0,48.0,30.07,West,274,1.0,7.0,34,0.00,,,0.00,,2013-03-05 22:42:00,
2013-03-05 17:52:00,78.0,49.0,30.07,WNW,294,0.0,2.0,36,0.00,,,0.00,,2013-03-05 22:52:00,
2013-03-05 18:01:00,76.0,47.0,30.07,West,275,1.0,5.0,36,0.00,,,0.00,,2013-03-05 23:01:00,
2013-03-05 18:11:00,76.0,47.0,30.07,West,275,1.0,5.0,36,0.00,,,0.00,,2013-03-05 23:11:00,
2013-03-05 18:21:00,75.0,47.0,30.07,West,274,0.0,2.0,37,0.00,,,0.00,,2013-03-05 23:21:00,
2013-03-05 18:32:00,73.0,48.0,30.07,East,90,0.0,0.0,41,0.00,,,0.00,,2013-03-05 23:32:00,
2013-03-05 18:42:00,73.0,48.0,30.07,East,90,0.0,0.0,41,0.00,,,0.00,,2013-03-05 23:42:00,
2013-03-05 18:52:00,71.0,48.0,30.06,East,90,0.0,0.0,44,0.00,,,0.00,,2013-03-05 23:52:00,
2013-03-05 19:02:00,68.0,48.0,30.06,East,90,0.0,0.0,49,0.00,,,0.00,,2013-03-06 00:02:00,
2013-03-05 19:11:00,68.0,48.0,30.06,East,90,0.0,0.0,49,0.00,,,0.00,,2013-03-06 00:11:00,
2013-03-05 19:21:00,67.0,49.0,30.06,East,90,0.0,0.0,52,0.00,,,0.00,,2013-03-06 00:21:00,
2013-03-05 19:32:00,65.0,48.0,30.06,East,90,0.0,0.0,55,0.00,,,0.00,,2013-03-06 00:32:00,
2013-03-05 19:42:00,65.0,48.0,30.06,East,90,0.0,0.0,55,0.00,,,0.00,,2013-03-06 00:42:00,
2013-03-05 19:52:00,64.0,49.0,30.06,East,90,0.0,0.0,59,0.00,,,0.00,,2013-03-06 00:52:00,
2013-03-05 20:02:00,63.0,48.0,30.06,East,90,0.0,0.0,58,0.00,,,0.00,,2013-03-06 01:02:00,
2013-03-05 20:11:00,63.0,48.0,30.06,East,90,0.0,0.0,58,0.00,,,0.00,,2013-03-06 01:11:00,
2013-03-05 20:21:00,64.0,49.0,30.06,East,90,0.0,0.0,58,0.00,,,0.00,,2013-03-06 01:21:00,
2013-03-05 20:32:00,65.0,48.0,30.06,West,264,0.0,5.0,55,0.00,,,0.00,,2013-03-06 01:32:00,
2013-03-05 20:42:00,65.0,48.0,30.06,West,264,0.0,5.0,55,0.00,,,0.00,,2013-03-06 01:42:00,
2013-03-05 20:51:00,66.0,48.0,30.06,West,277,1.0,6.0,53,0.00,,,0.00,,2013-03-06 01:51:00,
2013-03-05 21:01:00,66.0,48.0,30.07,West,261,1.0,4.0,53,0.00,,,0.00,,2013-03-06 02:01:00,
2013-03-05 21:11:00,66.0,48.0,30.07,West,261,1.0,4.0,53,0.00,,,0.00,,2013-03-06 02:11:00,
2013-03-05 21:22:00,65.0,48.0,30.07,WSW,257,0.0,6.0,55,0.00,,,0.00,,2013-03-06 02:22:00,
2013-03-05 21:32:00,65.0,49.0,30.07,West,280,0.0,3.0,56,0.00,,,0.00,,2013-03-06 02:32:00,
2013-03-05 21:42:00,65.0,49.0,30.07,West,280,0.0,3.0,56,0.00,,,0.00,,2013-03-06 02:42:00,
2013-03-05 21:52:00,63.0,48.0,30.07,WSW,246,0.0,7.0,58,0.00,,,0.00,,2013-03-06 02:52:00,
2013-03-05 22:02:00,63.0,48.0,30.07,WSW,251,0.0,6.0,59,0.00,,,0.00,,2013-03-06 03:02:00,
2013-03-05 22:11:00,63.0,48.0,30.07,WSW,251,0.0,6.0,59,0.00,,,0.00,,2013-03-06 03:11:00,
2013-03-05 22:22:00,62.0,49.0,30.07,West,269,1.0,6.0,63,0.00,,,0.00,,2013-03-06 03:22:00,
2013-03-05 22:32:00,62.0,50.0,30.06,WSW,256,0.0,3.0,65,0.00,,,0.00,,2013-03-06 03:32:00,
2013-03-05 22:42:00,62.0,50.0,30.06,WSW,256,0.0,3.0,65,0.00,,,0.00,,2013-03-06 03:42:00,
2013-03-05 22:52:00,61.0,50.0,30.06,West,273,1.0,4.0,67,0.00,,,0.00,,2013-03-06 03:52:00,
2013-03-05 23:02:00,60.0,51.0,30.06,West,273,0.0,3.0,72,0.00,,,0.00,,2013-03-06 04:02:00,
2013-03-05 23:11:00,60.0,51.0,30.06,West,273,0.0,3.0,72,0.00,,,0.00,,2013-03-06 04:11:00,
2013-03-05 23:22:00,59.0,51.0,30.06,SSW,204,0.0,3.0,75,0.00,,,0.00,,2013-03-06 04:22:00,
2013-03-05 23:32:00,58.0,50.0,30.06,WSW,257,0.0,3.0,76,0.00,,,0.00,,2013-03-06 04:32:00,
2013-03-05 23:42:00,58.0,50.0,30.06,WSW,257,0.0,3.0,76,0.00,,,0.00,,2013-03-06 04:42:00,
2013-03-05 23:52:00,57.0,51.0,30.04,SSW,197,0.0,2.0,81,0.00,,,0.00,,2013-03-06 04:52:00,